sensor_id;sensor_type;location;lat;lon;timestamp;P1;durP1;ratioP1;P2;durP2;ratioP2
66581;SDS011;53438;48.898;2.308;2023-03-25T00:00:19;7.77;;;1.20;;
66581;SDS011;53438;48.898;2.308;2023-03-25T00:02:46;5.78;;;0.90;;
66581;SDS011;53438;48.898;2.308;2023-03-25T00:05:13;5.60;;;0.93;;
66581;SDS011;53438;48.898;2.308;2023-03-25T00:07:41;5.57;;;1.00;;
66581;SDS011;53438;48.898;2.308;2023-03-25T00:10:07;5.10;;;1.00;;
66581;SDS011;53438;48.898;2.308;2023-03-25T00:12:34;7.97;;;1.40;;
66581;SDS011;53438;48.898;2.308;2023-03-25T00:14:59;3.50;;;1.13;;
66581;SDS011;53438;48.898;2.308;2023-03-25T00:17:25;7.43;;;0.83;;
66581;SDS011;53438;48.898;2.308;2023-03-25T00:19:53;9.00;;;1.02;;
66581;SDS011;53438;48.898;2.308;2023-03-25T00:22:19;5.88;;;0.98;;
66581;SDS011;53438;48.898;2.308;2023-03-25T00:24:46;7.10;;;2.27;;
66581;SDS011;53438;48.898;2.308;2023-03-25T00:27:11;7.65;;;1.30;;
66581;SDS011;53438;48.898;2.308;2023-03-25T00:29:38;9.55;;;1.27;;
66581;SDS011;53438;48.898;2.308;2023-03-25T00:32:05;4.63;;;1.10;;
66581;SDS011;53438;48.898;2.308;2023-03-25T00:34:30;8.43;;;1.10;;
66581;SDS011;53438;48.898;2.308;2023-03-25T00:36:59;9.50;;;1.40;;
66581;SDS011;53438;48.898;2.308;2023-03-25T00:39:26;8.53;;;1.23;;
66581;SDS011;53438;48.898;2.308;2023-03-25T00:41:52;9.85;;;1.42;;
66581;SDS011;53438;48.898;2.308;2023-03-25T00:44:18;12.77;;;2.05;;
66581;SDS011;53438;48.898;2.308;2023-03-25T00:46:43;6.53;;;1.50;;
66581;SDS011;53438;48.898;2.308;2023-03-25T00:49:09;7.95;;;0.88;;
66581;SDS011;53438;48.898;2.308;2023-03-25T00:51:36;7.43;;;1.35;;
66581;SDS011;53438;48.898;2.308;2023-03-25T00:54:01;8.90;;;1.40;;
66581;SDS011;53438;48.898;2.308;2023-03-25T00:56:27;13.93;;;1.07;;
66581;SDS011;53438;48.898;2.308;2023-03-25T00:58:54;12.40;;;1.63;;
66581;SDS011;53438;48.898;2.308;2023-03-25T04:03:08;8.23;;;1.63;;
66581;SDS011;53438;48.898;2.308;2023-03-25T04:05:53;9.00;;;1.45;;
66581;SDS011;53438;48.898;2.308;2023-03-25T04:08:30;8.07;;;1.73;;
66581;SDS011;53438;48.898;2.308;2023-03-25T04:11:02;9.43;;;1.48;;
66581;SDS011;53438;48.898;2.308;2023-03-25T04:13:34;11.05;;;1.33;;
66581;SDS011;53438;48.898;2.308;2023-03-25T04:16:01;8.10;;;1.40;;
66581;SDS011;53438;48.898;2.308;2023-03-25T04:18:27;11.73;;;1.75;;
66581;SDS011;53438;48.898;2.308;2023-03-25T04:20:56;10.40;;;1.43;;
66581;SDS011;53438;48.898;2.308;2023-03-25T04:23:21;10.57;;;1.52;;
66581;SDS011;53438;48.898;2.308;2023-03-25T04:25:46;9.13;;;1.20;;
66581;SDS011;53438;48.898;2.308;2023-03-25T04:28:14;9.85;;;1.15;;
66581;SDS011;53438;48.898;2.308;2023-03-25T04:30:41;9.07;;;0.90;;
66581;SDS011;53438;48.898;2.308;2023-03-25T04:33:09;7.25;;;1.15;;
66581;SDS011;53438;48.898;2.308;2023-03-25T04:35:35;8.53;;;1.30;;
66581;SDS011;53438;48.898;2.308;2023-03-25T04:38:01;8.82;;;1.33;;
66581;SDS011;53438;48.898;2.308;2023-03-25T04:40:27;6.57;;;1.10;;
66581;SDS011;53438;48.898;2.308;2023-03-25T04:42:53;11.77;;;1.40;;
66581;SDS011;53438;48.898;2.308;2023-03-25T04:45:20;9.60;;;1.50;;
66581;SDS011;53438;48.898;2.308;2023-03-25T04:47:46;7.17;;;1.00;;
66581;SDS011;53438;48.898;2.308;2023-03-25T04:50:15;6.78;;;1.10;;
66581;SDS011;53438;48.898;2.308;2023-03-25T04:52:52;7.00;;;0.80;;
66581;SDS011;53438;48.898;2.308;2023-03-25T04:55:19;8.85;;;1.45;;
66581;SDS011;53438;48.898;2.308;2023-03-25T04:57:46;6.77;;;1.03;;
66581;SDS011;53438;48.898;2.308;2023-03-25T05:00:13;11.32;;;1.17;;
66581;SDS011;53438;48.898;2.308;2023-03-25T05:02:43;6.35;;;1.50;;
66581;SDS011;53438;48.898;2.308;2023-03-25T05:05:13;9.93;;;1.33;;
66581;SDS011;53438;48.898;2.308;2023-03-25T05:07:43;6.65;;;1.02;;
66581;SDS011;53438;48.898;2.308;2023-03-25T05:10:10;11.23;;;1.20;;
66581;SDS011;53438;48.898;2.308;2023-03-25T05:12:36;9.50;;;1.52;;
66581;SDS011;53438;48.898;2.308;2023-03-25T05:15:02;6.80;;;1.00;;
66581;SDS011;53438;48.898;2.308;2023-03-25T05:17:27;3.83;;;0.60;;
66581;SDS011;53438;48.898;2.308;2023-03-25T05:19:53;5.25;;;1.10;;
66581;SDS011;53438;48.898;2.308;2023-03-25T05:22:20;12.07;;;1.20;;
66581;SDS011;53438;48.898;2.308;2023-03-25T05:24:47;6.22;;;1.17;;
66581;SDS011;53438;48.898;2.308;2023-03-25T05:27:12;6.38;;;0.93;;
66581;SDS011;53438;48.898;2.308;2023-03-25T05:29:37;7.17;;;1.63;;
66581;SDS011;53438;48.898;2.308;2023-03-25T05:32:03;7.30;;;1.30;;
66581;SDS011;53438;48.898;2.308;2023-03-25T05:34:28;7.17;;;1.00;;
66581;SDS011;53438;48.898;2.308;2023-03-25T05:36:55;9.88;;;1.10;;
66581;SDS011;53438;48.898;2.308;2023-03-25T05:39:21;9.63;;;1.20;;
66581;SDS011;53438;48.898;2.308;2023-03-25T05:41:46;11.70;;;1.23;;
66581;SDS011;53438;48.898;2.308;2023-03-25T05:44:12;7.90;;;1.17;;
66581;SDS011;53438;48.898;2.308;2023-03-25T05:46:39;5.85;;;0.85;;
66581;SDS011;53438;48.898;2.308;2023-03-25T05:49:04;5.27;;;1.00;;
66581;SDS011;53438;48.898;2.308;2023-03-25T05:51:31;6.82;;;1.20;;
66581;SDS011;53438;48.898;2.308;2023-03-25T05:54:01;9.23;;;0.80;;
66581;SDS011;53438;48.898;2.308;2023-03-25T05:56:32;7.95;;;0.90;;
66581;SDS011;53438;48.898;2.308;2023-03-25T05:58:58;9.40;;;1.23;;
66581;SDS011;53438;48.898;2.308;2023-03-25T06:01:23;7.60;;;1.00;;
66581;SDS011;53438;48.898;2.308;2023-03-25T06:03:49;8.90;;;1.10;;
66581;SDS011;53438;48.898;2.308;2023-03-25T06:06:15;12.27;;;1.47;;
66581;SDS011;53438;48.898;2.308;2023-03-25T06:08:48;9.38;;;1.40;;
66581;SDS011;53438;48.898;2.308;2023-03-25T06:11:14;12.13;;;1.67;;
66581;SDS011;53438;48.898;2.308;2023-03-25T06:13:41;4.97;;;1.15;;
66581;SDS011;53438;48.898;2.308;2023-03-25T06:16:13;10.90;;;1.50;;
66581;SDS011;53438;48.898;2.308;2023-03-25T06:18:44;7.57;;;1.10;;
66581;SDS011;53438;48.898;2.308;2023-03-25T06:21:22;9.98;;;1.27;;
66581;SDS011;53438;48.898;2.308;2023-03-25T06:23:48;8.50;;;0.95;;
66581;SDS011;53438;48.898;2.308;2023-03-25T06:26:17;7.47;;;1.45;;
66581;SDS011;53438;48.898;2.308;2023-03-25T06:28:43;6.18;;;1.83;;
66581;SDS011;53438;48.898;2.308;2023-03-25T06:31:13;6.50;;;0.97;;
66581;SDS011;53438;48.898;2.308;2023-03-25T06:33:44;6.95;;;1.15;;
66581;SDS011;53438;48.898;2.308;2023-03-25T06:36:10;7.00;;;0.93;;
66581;SDS011;53438;48.898;2.308;2023-03-25T06:38:38;5.88;;;0.88;;
66581;SDS011;53438;48.898;2.308;2023-03-25T06:41:03;5.22;;;0.90;;
66581;SDS011;53438;48.898;2.308;2023-03-25T06:43:29;8.47;;;1.03;;
66581;SDS011;53438;48.898;2.308;2023-03-25T06:45:54;10.63;;;1.47;;
66581;SDS011;53438;48.898;2.308;2023-03-25T06:48:20;9.07;;;1.40;;
66581;SDS011;53438;48.898;2.308;2023-03-25T06:50:45;10.93;;;1.23;;
66581;SDS011;53438;48.898;2.308;2023-03-25T06:53:11;9.00;;;1.17;;
66581;SDS011;53438;48.898;2.308;2023-03-25T06:55:36;8.70;;;1.60;;
66581;SDS011;53438;48.898;2.308;2023-03-25T06:58:02;7.97;;;0.70;;
66581;SDS011;53438;48.898;2.308;2023-03-25T07:00:28;7.45;;;1.05;;
66581;SDS011;53438;48.898;2.308;2023-03-25T07:02:54;9.83;;;1.40;;
66581;SDS011;53438;48.898;2.308;2023-03-25T07:05:20;11.23;;;1.15;;
66581;SDS011;53438;48.898;2.308;2023-03-25T07:07:46;7.87;;;1.00;;
66581;SDS011;53438;48.898;2.308;2023-03-25T07:10:12;8.27;;;1.20;;
66581;SDS011;53438;48.898;2.308;2023-03-25T07:12:37;10.27;;;1.10;;
66581;SDS011;53438;48.898;2.308;2023-03-25T07:15:03;6.97;;;1.33;;
66581;SDS011;53438;48.898;2.308;2023-03-25T07:17:29;6.22;;;0.75;;
66581;SDS011;53438;48.898;2.308;2023-03-25T07:19:54;7.43;;;1.37;;
66581;SDS011;53438;48.898;2.308;2023-03-25T07:22:20;8.93;;;1.43;;
66581;SDS011;53438;48.898;2.308;2023-03-25T07:24:45;8.10;;;1.35;;
66581;SDS011;53438;48.898;2.308;2023-03-25T07:27:11;10.80;;;1.30;;
66581;SDS011;53438;48.898;2.308;2023-03-25T07:29:37;9.18;;;1.17;;
66581;SDS011;53438;48.898;2.308;2023-03-25T07:32:03;12.80;;;1.90;;
66581;SDS011;53438;48.898;2.308;2023-03-25T07:34:28;8.73;;;1.47;;
66581;SDS011;53438;48.898;2.308;2023-03-25T07:36:54;6.50;;;0.98;;
66581;SDS011;53438;48.898;2.308;2023-03-25T07:39:20;8.70;;;1.40;;
66581;SDS011;53438;48.898;2.308;2023-03-25T07:41:49;11.75;;;1.70;;
66581;SDS011;53438;48.898;2.308;2023-03-25T07:44:15;11.55;;;1.13;;
66581;SDS011;53438;48.898;2.308;2023-03-25T07:46:40;7.60;;;0.97;;
66581;SDS011;53438;48.898;2.308;2023-03-25T07:49:05;10.03;;;1.03;;
66581;SDS011;53438;48.898;2.308;2023-03-25T07:51:31;8.27;;;1.47;;
66581;SDS011;53438;48.898;2.308;2023-03-25T07:53:58;7.57;;;1.00;;
66581;SDS011;53438;48.898;2.308;2023-03-25T07:56:23;11.03;;;1.20;;
66581;SDS011;53438;48.898;2.308;2023-03-25T07:58:49;10.47;;;1.80;;
66581;SDS011;53438;48.898;2.308;2023-03-25T08:01:14;7.93;;;1.10;;
66581;SDS011;53438;48.898;2.308;2023-03-25T08:03:40;8.27;;;1.08;;
66581;SDS011;53438;48.898;2.308;2023-03-25T08:06:07;10.38;;;1.10;;
66581;SDS011;53438;48.898;2.308;2023-03-25T08:08:33;6.47;;;1.05;;
66581;SDS011;53438;48.898;2.308;2023-03-25T08:10:58;8.60;;;1.10;;
66581;SDS011;53438;48.898;2.308;2023-03-25T08:13:24;11.70;;;1.03;;
66581;SDS011;53438;48.898;2.308;2023-03-25T08:15:50;8.55;;;1.10;;
66581;SDS011;53438;48.898;2.308;2023-03-25T08:18:16;11.57;;;1.38;;
66581;SDS011;53438;48.898;2.308;2023-03-25T08:20:42;6.77;;;1.50;;
66581;SDS011;53438;48.898;2.308;2023-03-25T08:23:07;7.93;;;1.10;;
66581;SDS011;53438;48.898;2.308;2023-03-25T08:25:34;8.93;;;1.20;;
66581;SDS011;53438;48.898;2.308;2023-03-25T08:28:00;7.88;;;1.30;;
66581;SDS011;53438;48.898;2.308;2023-03-25T08:30:39;10.65;;;1.27;;
66581;SDS011;53438;48.898;2.308;2023-03-25T08:33:05;11.33;;;0.97;;
66581;SDS011;53438;48.898;2.308;2023-03-25T08:35:35;10.23;;;1.20;;
66581;SDS011;53438;48.898;2.308;2023-03-25T08:38:01;10.25;;;1.30;;
66581;SDS011;53438;48.898;2.308;2023-03-25T08:40:29;10.70;;;1.27;;
66581;SDS011;53438;48.898;2.308;2023-03-25T08:42:56;8.27;;;1.30;;
66581;SDS011;53438;48.898;2.308;2023-03-25T08:45:22;8.30;;;1.20;;
66581;SDS011;53438;48.898;2.308;2023-03-25T08:47:47;10.20;;;1.50;;
66581;SDS011;53438;48.898;2.308;2023-03-25T08:50:12;8.40;;;1.40;;
66581;SDS011;53438;48.898;2.308;2023-03-25T08:52:38;9.37;;;1.43;;
66581;SDS011;53438;48.898;2.308;2023-03-25T08:55:04;5.50;;;1.23;;
66581;SDS011;53438;48.898;2.308;2023-03-25T08:57:31;9.32;;;1.05;;
66581;SDS011;53438;48.898;2.308;2023-03-25T08:59:58;7.88;;;1.35;;
66581;SDS011;53438;48.898;2.308;2023-03-25T09:02:23;9.77;;;1.60;;
66581;SDS011;53438;48.898;2.308;2023-03-25T09:04:49;8.10;;;1.23;;
66581;SDS011;53438;48.898;2.308;2023-03-25T09:07:15;9.93;;;1.13;;
66581;SDS011;53438;48.898;2.308;2023-03-25T09:09:43;10.10;;;1.40;;
66581;SDS011;53438;48.898;2.308;2023-03-25T09:12:09;9.82;;;1.15;;
66581;SDS011;53438;48.898;2.308;2023-03-25T09:14:35;11.30;;;1.23;;
66581;SDS011;53438;48.898;2.308;2023-03-25T09:17:00;5.55;;;0.90;;
66581;SDS011;53438;48.898;2.308;2023-03-25T09:19:26;8.93;;;1.13;;
66581;SDS011;53438;48.898;2.308;2023-03-25T09:21:52;4.87;;;0.97;;
66581;SDS011;53438;48.898;2.308;2023-03-25T09:24:18;9.18;;;1.30;;
66581;SDS011;53438;48.898;2.308;2023-03-25T09:26:45;4.53;;;0.85;;
66581;SDS011;53438;48.898;2.308;2023-03-25T09:29:11;4.47;;;0.80;;
66581;SDS011;53438;48.898;2.308;2023-03-25T09:31:36;8.43;;;1.47;;
66581;SDS011;53438;48.898;2.308;2023-03-25T09:34:01;7.73;;;1.20;;
66581;SDS011;53438;48.898;2.308;2023-03-25T09:36:27;6.75;;;1.77;;
66581;SDS011;53438;48.898;2.308;2023-03-25T09:38:52;5.63;;;0.90;;
66581;SDS011;53438;48.898;2.308;2023-03-25T09:41:40;9.27;;;0.90;;
66581;SDS011;53438;48.898;2.308;2023-03-25T09:44:51;8.57;;;1.30;;
66581;SDS011;53438;48.898;2.308;2023-03-25T09:47:29;10.38;;;1.35;;
66581;SDS011;53438;48.898;2.308;2023-03-25T09:49:58;8.68;;;1.00;;
66581;SDS011;53438;48.898;2.308;2023-03-25T09:52:38;3.65;;;0.85;;
66581;SDS011;53438;48.898;2.308;2023-03-25T09:55:14;5.85;;;0.73;;
66581;SDS011;53438;48.898;2.308;2023-03-25T09:57:49;9.87;;;2.23;;
66581;SDS011;53438;48.898;2.308;2023-03-25T10:00:21;5.13;;;1.23;;
66581;SDS011;53438;48.898;2.308;2023-03-25T10:08:24;6.72;;;0.80;;
66581;SDS011;53438;48.898;2.308;2023-03-25T10:21:57;6.40;;;1.40;;
66581;SDS011;53438;48.898;2.308;2023-03-25T10:24:30;9.23;;;0.73;;
66581;SDS011;53438;48.898;2.308;2023-03-25T10:29:54;9.67;;;0.83;;
66581;SDS011;53438;48.898;2.308;2023-03-25T10:32:29;14.65;;;1.50;;
66581;SDS011;53438;48.898;2.308;2023-03-25T10:34:58;9.07;;;1.08;;
66581;SDS011;53438;48.898;2.308;2023-03-25T10:37:29;5.68;;;0.75;;
66581;SDS011;53438;48.898;2.308;2023-03-25T10:39:58;8.25;;;1.23;;
66581;SDS011;53438;48.898;2.308;2023-03-25T10:42:39;5.83;;;0.90;;
66581;SDS011;53438;48.898;2.308;2023-03-25T10:45:15;6.88;;;0.70;;
66581;SDS011;53438;48.898;2.308;2023-03-25T10:47:42;6.40;;;0.88;;
66581;SDS011;53438;48.898;2.308;2023-03-25T10:50:13;9.13;;;0.90;;
66581;SDS011;53438;48.898;2.308;2023-03-25T10:52:43;7.47;;;1.45;;
66581;SDS011;53438;48.898;2.308;2023-03-25T10:55:25;8.87;;;1.10;;
66581;SDS011;53438;48.898;2.308;2023-03-25T10:57:54;7.72;;;0.93;;
66581;SDS011;53438;48.898;2.308;2023-03-25T11:00:20;7.15;;;0.98;;
66581;SDS011;53438;48.898;2.308;2023-03-25T11:02:50;6.25;;;0.90;;
66581;SDS011;53438;48.898;2.308;2023-03-25T11:05:19;5.20;;;1.00;;
66581;SDS011;53438;48.898;2.308;2023-03-25T11:07:48;7.10;;;1.63;;
66581;SDS011;53438;48.898;2.308;2023-03-25T11:10:23;6.95;;;1.20;;
66581;SDS011;53438;48.898;2.308;2023-03-25T11:12:51;5.20;;;1.00;;
66581;SDS011;53438;48.898;2.308;2023-03-25T11:15:21;7.57;;;1.17;;
66581;SDS011;53438;48.898;2.308;2023-03-25T11:17:58;8.98;;;1.00;;
66581;SDS011;53438;48.898;2.308;2023-03-25T11:20:34;7.63;;;1.00;;
66581;SDS011;53438;48.898;2.308;2023-03-25T11:23:07;7.15;;;0.93;;
66581;SDS011;53438;48.898;2.308;2023-03-25T11:25:43;7.28;;;1.10;;
66581;SDS011;53438;48.898;2.308;2023-03-25T11:28:16;8.70;;;1.20;;
66581;SDS011;53438;48.898;2.308;2023-03-25T11:34:03;11.52;;;1.70;;
66581;SDS011;53438;48.898;2.308;2023-03-25T11:36:36;8.47;;;1.50;;
66581;SDS011;53438;48.898;2.308;2023-03-25T11:39:16;9.82;;;1.83;;
66581;SDS011;53438;48.898;2.308;2023-03-25T11:41:43;6.18;;;1.80;;
66581;SDS011;53438;48.898;2.308;2023-03-25T11:44:17;8.35;;;1.15;;
66581;SDS011;53438;48.898;2.308;2023-03-25T11:47:04;13.13;;;3.05;;
66581;SDS011;53438;48.898;2.308;2023-03-25T11:49:33;13.17;;;2.37;;
66581;SDS011;53438;48.898;2.308;2023-03-25T11:52:02;11.93;;;2.05;;
66581;SDS011;53438;48.898;2.308;2023-03-25T11:54:31;6.82;;;1.73;;
66581;SDS011;53438;48.898;2.308;2023-03-25T11:56:59;8.68;;;1.30;;
66581;SDS011;53438;48.898;2.308;2023-03-25T11:59:35;7.13;;;1.35;;
66581;SDS011;53438;48.898;2.308;2023-03-25T12:03:04;9.53;;;1.23;;
66581;SDS011;53438;48.898;2.308;2023-03-25T12:05:08;6.05;;;0.88;;
66581;SDS011;53438;48.898;2.308;2023-03-25T12:07:44;8.27;;;1.20;;
66581;SDS011;53438;48.898;2.308;2023-03-25T12:10:34;5.95;;;1.13;;
66581;SDS011;53438;48.898;2.308;2023-03-25T12:13:08;5.90;;;0.80;;
66581;SDS011;53438;48.898;2.308;2023-03-25T12:16:01;6.73;;;1.30;;
66581;SDS011;53438;48.898;2.308;2023-03-25T12:32:12;8.00;;;0.82;;
66581;SDS011;53438;48.898;2.308;2023-03-25T12:38:04;7.60;;;1.10;;
66581;SDS011;53438;48.898;2.308;2023-03-25T12:49:18;9.75;;;1.70;;
66581;SDS011;53438;48.898;2.308;2023-03-25T12:52:03;5.28;;;1.17;;
66581;SDS011;53438;48.898;2.308;2023-03-25T13:10:34;9.90;;;1.20;;
66581;SDS011;53438;48.898;2.308;2023-03-25T13:13:03;6.32;;;1.20;;
66581;SDS011;53438;48.898;2.308;2023-03-25T13:15:42;8.43;;;1.73;;
66581;SDS011;53438;48.898;2.308;2023-03-25T13:18:12;6.53;;;1.48;;
66581;SDS011;53438;48.898;2.308;2023-03-25T13:23:27;10.20;;;1.60;;
66581;SDS011;53438;48.898;2.308;2023-03-25T13:28:44;7.18;;;1.00;;
66581;SDS011;53438;48.898;2.308;2023-03-25T13:31:18;8.60;;;1.45;;
66581;SDS011;53438;48.898;2.308;2023-03-25T13:33:47;9.00;;;1.45;;
66581;SDS011;53438;48.898;2.308;2023-03-25T13:36:30;9.40;;;1.40;;
66581;SDS011;53438;48.898;2.308;2023-03-25T13:39:02;9.10;;;1.38;;
66581;SDS011;53438;48.898;2.308;2023-03-25T13:44:24;8.32;;;1.50;;
66581;SDS011;53438;48.898;2.308;2023-03-25T13:46:53;7.63;;;1.50;;
66581;SDS011;53438;48.898;2.308;2023-03-25T13:49:44;11.10;;;1.20;;
66581;SDS011;53438;48.898;2.308;2023-03-25T13:52:15;6.25;;;1.30;;
66581;SDS011;53438;48.898;2.308;2023-03-25T14:00:23;7.07;;;1.30;;
66581;SDS011;53438;48.898;2.308;2023-03-25T14:08:32;6.32;;;1.45;;
66581;SDS011;53438;48.898;2.308;2023-03-25T14:13:52;8.48;;;1.83;;
66581;SDS011;53438;48.898;2.308;2023-03-25T14:16:25;11.13;;;1.77;;
66581;SDS011;53438;48.898;2.308;2023-03-25T14:18:57;7.40;;;1.40;;
66581;SDS011;53438;48.898;2.308;2023-03-25T14:27:04;5.38;;;1.60;;
66581;SDS011;53438;48.898;2.308;2023-03-25T14:29:38;6.40;;;1.30;;
66581;SDS011;53438;48.898;2.308;2023-03-25T14:32:22;9.30;;;1.60;;
66581;SDS011;53438;48.898;2.308;2023-03-25T14:34:56;7.55;;;1.17;;
66581;SDS011;53438;48.898;2.308;2023-03-25T14:43:25;13.23;;;1.80;;
66581;SDS011;53438;48.898;2.308;2023-03-25T14:51:08;6.57;;;1.10;;
66581;SDS011;53438;48.898;2.308;2023-03-25T14:53:38;7.53;;;1.37;;
66581;SDS011;53438;48.898;2.308;2023-03-25T14:56:07;7.15;;;1.40;;
66581;SDS011;53438;48.898;2.308;2023-03-25T14:58:41;7.85;;;1.25;;
66581;SDS011;53438;48.898;2.308;2023-03-25T15:01:10;6.27;;;1.23;;
66581;SDS011;53438;48.898;2.308;2023-03-25T15:03:39;8.55;;;1.80;;
66581;SDS011;53438;48.898;2.308;2023-03-25T15:06:32;6.30;;;1.23;;
66581;SDS011;53438;48.898;2.308;2023-03-25T15:08:58;9.02;;;2.05;;
66581;SDS011;53438;48.898;2.308;2023-03-25T15:11:34;6.20;;;1.10;;
66581;SDS011;53438;48.898;2.308;2023-03-25T15:14:05;9.05;;;1.38;;
66581;SDS011;53438;48.898;2.308;2023-03-25T15:16:34;8.27;;;1.38;;
66581;SDS011;53438;48.898;2.308;2023-03-25T15:19:03;8.57;;;1.88;;
66581;SDS011;53438;48.898;2.308;2023-03-25T15:24:29;7.73;;;1.50;;
66581;SDS011;53438;48.898;2.308;2023-03-25T15:26:59;7.93;;;1.10;;
66581;SDS011;53438;48.898;2.308;2023-03-25T15:35:01;11.47;;;1.60;;
66581;SDS011;53438;48.898;2.308;2023-03-25T15:49:47;9.15;;;1.60;;
66581;SDS011;53438;48.898;2.308;2023-03-25T15:55:18;6.70;;;1.23;;
66581;SDS011;53438;48.898;2.308;2023-03-25T15:57:53;9.80;;;1.37;;
66581;SDS011;53438;48.898;2.308;2023-03-25T16:00:27;7.82;;;1.55;;
66581;SDS011;53438;48.898;2.308;2023-03-25T16:03:06;8.63;;;1.30;;
66581;SDS011;53438;48.898;2.308;2023-03-25T16:05:38;8.18;;;1.20;;
66581;SDS011;53438;48.898;2.308;2023-03-25T16:08:18;7.60;;;1.17;;
66581;SDS011;53438;48.898;2.308;2023-03-25T16:10:49;7.80;;;1.08;;
66581;SDS011;53438;48.898;2.308;2023-03-25T16:13:15;4.83;;;1.10;;
66581;SDS011;53438;48.898;2.308;2023-03-25T16:15:47;7.82;;;1.40;;
66581;SDS011;53438;48.898;2.308;2023-03-25T16:18:22;6.53;;;1.70;;
66581;SDS011;53438;48.898;2.308;2023-03-25T16:20:52;6.05;;;0.82;;
66581;SDS011;53438;48.898;2.308;2023-03-25T16:23:24;5.95;;;1.20;;
66581;SDS011;53438;48.898;2.308;2023-03-25T16:25:51;5.28;;;1.00;;
66581;SDS011;53438;48.898;2.308;2023-03-25T16:28:18;4.13;;;0.97;;
66581;SDS011;53438;48.898;2.308;2023-03-25T16:30:48;6.70;;;1.45;;
66581;SDS011;53438;48.898;2.308;2023-03-25T16:33:17;4.32;;;1.13;;
66581;SDS011;53438;48.898;2.308;2023-03-25T16:35:47;5.73;;;1.23;;
66581;SDS011;53438;48.898;2.308;2023-03-25T16:38:19;6.07;;;1.10;;
66581;SDS011;53438;48.898;2.308;2023-03-25T16:40:47;8.60;;;1.60;;
66581;SDS011;53438;48.898;2.308;2023-03-25T16:43:20;5.05;;;1.08;;
66581;SDS011;53438;48.898;2.308;2023-03-25T16:45:48;6.95;;;1.30;;
66581;SDS011;53438;48.898;2.308;2023-03-25T16:48:26;6.97;;;1.27;;
66581;SDS011;53438;48.898;2.308;2023-03-25T16:50:56;4.60;;;0.77;;
66581;SDS011;53438;48.898;2.308;2023-03-25T16:53:23;7.50;;;1.13;;
66581;SDS011;53438;48.898;2.308;2023-03-25T16:55:57;6.88;;;1.08;;
66581;SDS011;53438;48.898;2.308;2023-03-25T17:01:32;10.07;;;1.67;;
66581;SDS011;53438;48.898;2.308;2023-03-25T17:04:16;8.10;;;1.08;;
66581;SDS011;53438;48.898;2.308;2023-03-25T17:06:47;7.35;;;1.50;;
66581;SDS011;53438;48.898;2.308;2023-03-25T17:09:17;4.95;;;1.50;;
66581;SDS011;53438;48.898;2.308;2023-03-25T17:11:44;10.50;;;1.40;;
66581;SDS011;53438;48.898;2.308;2023-03-25T17:14:15;8.10;;;1.27;;
66581;SDS011;53438;48.898;2.308;2023-03-25T17:16:44;7.10;;;1.35;;
66581;SDS011;53438;48.898;2.308;2023-03-25T17:19:11;4.80;;;1.20;;
66581;SDS011;53438;48.898;2.308;2023-03-25T17:21:38;6.95;;;1.10;;
66581;SDS011;53438;48.898;2.308;2023-03-25T17:24:43;9.05;;;2.28;;
66581;SDS011;53438;48.898;2.308;2023-03-25T17:27:26;13.73;;;2.20;;
66581;SDS011;53438;48.898;2.308;2023-03-25T17:29:57;4.72;;;1.20;;
66581;SDS011;53438;48.898;2.308;2023-03-25T17:32:41;9.65;;;1.70;;
66581;SDS011;53438;48.898;2.308;2023-03-25T17:35:15;11.20;;;1.65;;
66581;SDS011;53438;48.898;2.308;2023-03-25T17:37:47;7.07;;;1.40;;
66581;SDS011;53438;48.898;2.308;2023-03-25T17:40:19;8.07;;;1.33;;
66581;SDS011;53438;48.898;2.308;2023-03-25T17:42:46;8.85;;;1.65;;
66581;SDS011;53438;48.898;2.308;2023-03-25T17:45:14;11.05;;;2.10;;
66581;SDS011;53438;48.898;2.308;2023-03-25T17:47:40;11.05;;;2.15;;
66581;SDS011;53438;48.898;2.308;2023-03-25T17:50:12;9.73;;;1.90;;
66581;SDS011;53438;48.898;2.308;2023-03-25T17:52:49;9.30;;;3.40;;
66581;SDS011;53438;48.898;2.308;2023-03-25T17:55:15;12.70;;;1.50;;
66581;SDS011;53438;48.898;2.308;2023-03-25T17:57:40;9.30;;;1.33;;
66581;SDS011;53438;48.898;2.308;2023-03-25T18:00:07;11.90;;;2.13;;
66581;SDS011;53438;48.898;2.308;2023-03-25T18:02:45;12.45;;;1.85;;
66581;SDS011;53438;48.898;2.308;2023-03-25T18:05:11;7.60;;;2.05;;
66581;SDS011;53438;48.898;2.308;2023-03-25T18:07:36;12.67;;;1.90;;
66581;SDS011;53438;48.898;2.308;2023-03-25T18:10:08;12.13;;;1.93;;
66581;SDS011;53438;48.898;2.308;2023-03-25T18:12:40;11.05;;;1.52;;
66581;SDS011;53438;48.898;2.308;2023-03-25T18:15:06;10.30;;;1.77;;
66581;SDS011;53438;48.898;2.308;2023-03-25T18:17:32;7.90;;;1.52;;
66581;SDS011;53438;48.898;2.308;2023-03-25T18:19:57;6.53;;;1.27;;
66581;SDS011;53438;48.898;2.308;2023-03-25T18:22:23;12.13;;;2.17;;
66581;SDS011;53438;48.898;2.308;2023-03-25T18:24:48;7.32;;;1.23;;
66581;SDS011;53438;48.898;2.308;2023-03-25T18:27:14;12.05;;;1.70;;
66581;SDS011;53438;48.898;2.308;2023-03-25T18:29:40;10.00;;;1.70;;
66581;SDS011;53438;48.898;2.308;2023-03-25T18:32:06;12.48;;;2.00;;
66581;SDS011;53438;48.898;2.308;2023-03-25T18:34:31;11.43;;;2.27;;
66581;SDS011;53438;48.898;2.308;2023-03-25T18:36:56;8.87;;;1.40;;
66581;SDS011;53438;48.898;2.308;2023-03-25T18:39:23;10.93;;;1.90;;
66581;SDS011;53438;48.898;2.308;2023-03-25T18:41:50;8.23;;;1.80;;
66581;SDS011;53438;48.898;2.308;2023-03-25T18:44:15;12.93;;;1.90;;
66581;SDS011;53438;48.898;2.308;2023-03-25T18:46:41;10.13;;;2.87;;
66581;SDS011;53438;48.898;2.308;2023-03-25T18:49:11;8.40;;;1.83;;
66581;SDS011;53438;48.898;2.308;2023-03-25T18:51:41;12.47;;;2.10;;
66581;SDS011;53438;48.898;2.308;2023-03-25T18:54:07;14.32;;;2.28;;
66581;SDS011;53438;48.898;2.308;2023-03-25T18:56:34;12.88;;;2.10;;
66581;SDS011;53438;48.898;2.308;2023-03-25T18:59:00;11.90;;;1.90;;
66581;SDS011;53438;48.898;2.308;2023-03-25T19:01:26;12.33;;;2.10;;
66581;SDS011;53438;48.898;2.308;2023-03-25T19:03:51;12.13;;;2.10;;
66581;SDS011;53438;48.898;2.308;2023-03-25T19:06:17;11.53;;;2.17;;
66581;SDS011;53438;48.898;2.308;2023-03-25T19:08:44;12.35;;;2.70;;
66581;SDS011;53438;48.898;2.308;2023-03-25T19:11:11;8.27;;;1.67;;
66581;SDS011;53438;48.898;2.308;2023-03-25T19:13:37;12.85;;;2.88;;
66581;SDS011;53438;48.898;2.308;2023-03-25T19:16:02;11.55;;;2.60;;
66581;SDS011;53438;48.898;2.308;2023-03-25T19:18:30;15.20;;;3.83;;
66581;SDS011;53438;48.898;2.308;2023-03-25T19:20:57;12.10;;;2.70;;
66581;SDS011;53438;48.898;2.308;2023-03-25T19:23:24;11.00;;;2.60;;
66581;SDS011;53438;48.898;2.308;2023-03-25T19:25:50;11.97;;;2.60;;
66581;SDS011;53438;48.898;2.308;2023-03-25T19:28:17;16.65;;;3.90;;
66581;SDS011;53438;48.898;2.308;2023-03-25T19:30:45;11.40;;;2.85;;
66581;SDS011;53438;48.898;2.308;2023-03-25T19:33:13;12.27;;;2.87;;
66581;SDS011;53438;48.898;2.308;2023-03-25T19:35:39;12.57;;;3.38;;
66581;SDS011;53438;48.898;2.308;2023-03-25T19:38:05;13.00;;;3.28;;
66581;SDS011;53438;48.898;2.308;2023-03-25T19:40:31;12.50;;;2.63;;
66581;SDS011;53438;48.898;2.308;2023-03-25T19:43:00;13.25;;;3.30;;
66581;SDS011;53438;48.898;2.308;2023-03-25T19:45:26;13.30;;;3.00;;
66581;SDS011;53438;48.898;2.308;2023-03-25T19:47:53;13.77;;;3.22;;
66581;SDS011;53438;48.898;2.308;2023-03-25T19:50:29;14.97;;;4.97;;
66581;SDS011;53438;48.898;2.308;2023-03-25T19:52:57;12.30;;;3.58;;
66581;SDS011;53438;48.898;2.308;2023-03-25T19:55:24;17.77;;;4.17;;
66581;SDS011;53438;48.898;2.308;2023-03-25T19:57:49;14.10;;;3.20;;
66581;SDS011;53438;48.898;2.308;2023-03-25T20:00:18;11.85;;;3.78;;
66581;SDS011;53438;48.898;2.308;2023-03-25T20:02:46;14.27;;;3.50;;
66581;SDS011;53438;48.898;2.308;2023-03-25T20:05:16;9.43;;;2.70;;
66581;SDS011;53438;48.898;2.308;2023-03-25T20:07:43;9.98;;;2.60;;